Time;durP1;ratioP1;P1;durP2;ratioP2;P2;SDS_P1;SDS_P2;PMS_P1;PMS_P2;Temp;Humidity;BMP_temperature;BMP_pressure;BME280_temperature;BME280_humidity;BME280_pressure;Samples;Min_cycle;Max_cycle;Signal;HPM_P1;HPM_P2
2022/06/23 00:04:59;;;;;;;10.33;5.93;;;;;;;15.18;59.45;99872.19;30859345;28;96698;-61
2022/06/23 00:20:09;;;;;;;6.57;3.60;;;;;;;15.03;60.25;99874.25;30858490;28;96615;-61
2022/06/23 00:35:16;;;;;;;6.30;3.17;;;;;;;14.80;60.91;99886.22;30857006;28;97639;-62
2022/06/23 00:50:38;;;;;;;7.53;3.13;;;;;;;14.61;61.33;99892.34;30856629;28;96681;-61
2022/06/23 01:05:45;;;;;;;9.50;3.50;;;;;;;14.35;62.32;99894.78;30855445;28;97637;-68
2022/06/23 01:21:00;;;;;;;7.70;3.50;;;;;;;14.17;62.65;99903.38;30854264;28;97135;-61
2022/06/23 01:36:09;;;;;;;6.67;3.60;;;;;;;14.00;63.40;99902.09;30852915;28;97544;-62
2022/06/23 01:51:39;;;;;;;7.53;4.10;;;;;;;13.86;64.09;99911.94;30852129;28;97435;-61
2022/06/23 02:06:49;;;;;;;5.63;3.67;;;;;;;13.82;64.50;99922.19;30851142;28;97711;-61
2022/06/23 02:21:54;;;;;;;7.37;3.87;;;;;;;13.76;65.00;99927.50;30853721;28;96986;-61
2022/06/23 02:37:33;;;;;;;9.03;4.53;;;;;;;13.66;65.17;99938.56;30868720;28;96808;-61
2022/06/23 02:52:52;;;;;;;5.53;3.80;;;;;;;13.56;65.80;99954.16;30963316;28;96856;-61
2022/06/23 03:08:02;;;;;;;7.40;4.20;;;;;;;13.47;66.13;99975.69;30864912;28;96685;-61
2022/06/23 03:23:14;;;;;;;10.00;4.43;;;;;;;13.59;66.51;99985.91;30862825;28;96866;-61
2022/06/23 03:41:36;;;;;;;6.60;4.40;;;;;;;13.71;66.79;99998.53;30862256;28;96684;-61
2022/06/23 03:54:01;;;;;;;9.97;4.70;;;;;;;13.91;66.85;100005.03;30858632;28;97177;-61
2022/06/23 04:09:14;;;;;;;8.20;4.57;;;;;;;14.20;66.84;100004.78;30857839;28;97221;-62
2022/06/23 04:24:24;;;;;;;17.43;5.17;;;;;;;14.53;66.66;100004.09;30855392;28;97687;-62
2022/06/23 04:39:38;;;;;;;10.90;5.27;;;;;;;14.97;66.46;100026.13;30855757;28;96717;-62
2022/06/23 04:54:49;;;;;;;9.57;4.77;;;;;;;15.49;65.89;100044.34;30849106;28;97231;-62
2022/06/23 05:09:58;;;;;;;12.73;5.37;;;;;;;16.04;65.58;100047.63;30854519;28;96765;-64
2022/06/23 05:25:19;;;;;;;7.63;4.63;;;;;;;16.74;64.61;100062.28;30852303;28;97501;-61
2022/06/23 05:40:48;;;;;;;7.33;3.93;;;;;;;17.39;63.38;100072.13;30854547;28;97484;-64
2022/06/23 05:55:59;;;;;;;8.20;4.40;;;;;;;18.05;62.33;100097.69;30853878;28;96609;-62
2022/06/23 06:11:03;;;;;;;6.27;3.43;;;;;;;18.89;61.10;100102.63;30870837;28;96696;-61
2022/06/23 06:26:04;;;;;;;17.70;4.00;;;;;;;19.89;58.71;100105.75;30869674;28;96727;-63
2022/06/23 06:41:05;;;;;;;5.97;4.00;;;;;;;20.94;56.36;100122.09;30868169;28;96670;-62
2022/06/23 06:56:13;;;;;;;6.35;2.55;;;;;;;21.51;52.19;100115.00;30865059;28;96733;-62
2022/06/23 07:11:28;;;;;;;9.93;2.73;;;;;;;22.03;49.71;100130.25;30863689;28;97538;-63
2022/06/23 07:26:40;;;;;;;6.43;2.50;;;;;;;22.84;47.51;100144.41;30861722;28;96781;-64
2022/06/23 07:41:44;;;;;;;5.77;2.10;;;;;;;23.44;44.85;100145.34;30858624;28;96917;-64
2022/06/23 07:56:46;;;;;;;3.10;1.40;;;;;;;24.01;40.72;100154.84;30858304;28;97202;-63
2022/06/23 08:27:14;;;;;;;7.20;1.80;;;;;;;25.24;37.21;100162.03;30857945;28;97121;-65
2022/06/23 08:42:24;;;;;;;5.10;2.27;;;;;;;25.77;35.82;100156.41;30856416;28;96780;-64
2022/06/23 08:57:40;;;;;;;12.37;2.47;;;;;;;25.97;33.98;100145.50;30854816;28;96784;-63
2022/06/23 09:12:50;;;;;;;5.30;2.23;;;;;;;26.98;34.16;100139.25;30854241;28;97044;-66
2022/06/23 09:28:00;;;;;;;6.47;1.83;;;;;;;28.27;30.96;100138.28;30850810;28;97464;-61
2022/06/23 09:43:19;;;;;;;2.70;1.33;;;;;;;28.84;29.32;100156.84;30891900;28;96643;-62
2022/06/23 09:58:34;;;;;;;4.60;1.60;;;;;;;29.34;27.32;100146.28;30888847;28;96744;-62
2022/06/23 10:13:48;;;;;;;2.30;1.30;;;;;;;29.69;26.02;100146.84;30890699;28;96992;-62
2022/06/23 10:29:06;;;;;;;6.40;1.40;;;;;;;29.91;24.63;100152.84;30888617;28;96897;-66
2022/06/23 10:44:44;;;;;;;5.20;1.53;;;;;;;29.86;23.62;100129.03;30880976;28;96930;-62
2022/06/23 11:00:05;;;;;;;3.67;1.20;;;;;;;30.08;23.60;100122.06;30855885;28;99658;-63
2022/06/23 11:15:40;;;;;;;4.67;1.27;;;;;;;30.79;23.22;100128.09;30860137;28;97914;-62
2022/06/23 11:30:46;;;;;;;4.67;1.57;;;;;;;29.71;24.11;100116.38;30863987;28;96818;-65
2022/06/23 11:46:15;;;;;;;3.00;1.20;;;;;;;29.81;24.29;100107.13;30863268;28;97214;-62
2022/06/23 12:01:18;;;;;;;2.13;1.30;;;;;;;30.21;24.47;100094.59;30820019;28;97500;-62
2022/06/23 12:16:19;;;;;;;2.73;1.40;;;;;;;30.17;24.50;100095.53;30857376;28;96928;-63
2022/06/23 12:31:44;;;;;;;3.40;1.50;;;;;;;30.28;24.75;100098.88;30856766;28;97307;-62
2022/06/23 12:46:47;;;;;;;3.43;1.60;;;;;;;30.29;24.97;100093.09;30853055;28;97003;-62
2022/06/23 13:01:54;;;;;;;2.60;1.60;;;;;;;29.91;25.39;100087.78;30853854;28;96922;-62
2022/06/23 13:17:04;;;;;;;2.83;1.63;;;;;;;29.87;25.42;100073.81;30846170;28;97063;-62
2022/06/23 13:32:23;;;;;;;2.40;1.60;;;;;;;29.85;25.53;100067.00;30844391;28;97355;-63
2022/06/23 13:47:33;;;;;;;4.37;1.70;;;;;;;29.69;25.96;100045.28;30843265;28;96887;-61
2022/06/23 14:02:56;;;;;;;6.60;2.43;;;;;;;28.87;26.55;100039.19;30845236;28;96851;-60
2022/06/23 14:18:16;;;;;;;2.80;1.50;;;;;;;28.29;27.35;100042.94;30846000;28;97020;-61
2022/06/23 14:33:48;;;;;;;4.37;1.57;;;;;;;28.46;27.31;100036.16;30861898;28;96998;-61
2022/06/23 14:49:15;;;;;;;1.93;1.53;;;;;;;28.79;27.12;100019.88;30861108;28;97416;-61
2022/06/23 15:04:28;;;;;;;4.07;1.53;;;;;;;28.99;26.71;100014.06;30856723;28;96778;-72
2022/06/23 15:19:46;;;;;;;3.43;1.40;;;;;;;28.57;26.50;100009.44;30890682;28;97882;-62
2022/06/23 15:34:52;;;;;;;2.80;1.40;;;;;;;28.09;26.90;99999.38;30884028;28;97161;-62
2022/06/23 15:49:56;;;;;;;8.33;1.80;;;;;;;27.57;27.83;99991.72;30822275;28;98091;-62
2022/06/23 16:05:05;;;;;;;3.33;1.43;;;;;;;27.36;28.26;99996.53;30848918;28;99471;-62
2022/06/23 16:20:10;;;;;;;4.37;1.40;;;;;;;27.60;27.99;100002.06;30848895;28;96876;-62
2022/06/23 16:35:40;;;;;;;4.00;1.57;;;;;;;27.31;27.78;99994.66;30854787;28;97191;-65
2022/06/23 16:51:08;;;;;;;4.80;1.50;;;;;;;26.95;28.23;99994.91;30849409;28;97391;-62
2022/06/23 17:06:15;;;;;;;1.47;1.10;;;;;;;26.61;28.90;99998.38;30841598;28;97287;-62
2022/06/23 17:21:26;;;;;;;4.40;1.40;;;;;;;26.34;29.77;100010.56;30849548;28;96849;-62
2022/06/23 17:36:50;;;;;;;2.90;1.50;;;;;;;26.12;30.35;100001.91;30850792;28;97634;-62
2022/06/23 17:51:56;;;;;;;2.90;1.30;;;;;;;25.67;31.25;100013.47;30850826;28;97605;-63
2022/06/23 18:06:57;;;;;;;3.10;1.57;;;;;;;25.22;32.39;100015.09;30859509;28;97597;-63
2022/06/23 18:22:10;;;;;;;3.08;1.85;;;;;;;25.08;33.33;100022.16;30859559;28;97697;-66
2022/06/23 18:37:28;;;;;;;4.67;2.17;;;;;;;24.54;34.01;100028.84;30860364;28;96835;-63
2022/06/23 18:52:32;;;;;;;4.73;1.60;;;;;;;23.83;35.40;100030.94;30857805;28;96711;-62
2022/06/23 19:07:49;;;;;;;4.00;2.30;;;;;;;23.15;36.29;100042.34;30853886;28;97161;-63
2022/06/23 19:22:54;;;;;;;6.07;2.00;;;;;;;22.80;37.19;100046.34;30805859;28;98051;-63
2022/06/23 19:38:13;;;;;;;10.07;2.40;;;;;;;22.19;38.64;100049.09;30863790;28;96761;-63
2022/06/23 19:53:36;;;;;;;6.33;2.53;;;;;;;21.66;40.12;100044.00;30862845;28;97450;-62
2022/06/23 20:08:54;;;;;;;6.67;3.00;;;;;;;21.25;41.37;100046.81;30860863;28;97398;-62
2022/06/23 20:24:11;;;;;;;6.50;2.90;;;;;;;21.06;42.69;100051.63;30863706;28;97423;-62
2022/06/23 20:39:25;;;;;;;3.40;2.47;;;;;;;20.69;43.56;100048.50;30852638;28;96916;-63
2022/06/23 20:54:43;;;;;;;5.17;2.70;;;;;;;20.45;45.03;100056.66;30854395;28;97385;-66
2022/06/23 21:09:57;;;;;;;9.57;3.20;;;;;;;20.52;45.38;100065.47;30770643;28;98053;-68
2022/06/23 21:25:00;;;;;;;8.63;2.93;;;;;;;20.45;45.98;100067.50;30732317;28;97656;-63
2022/06/23 21:40:06;;;;;;;6.23;3.00;;;;;;;20.07;46.66;100058.03;30731356;28;97451;-68
2022/06/23 21:55:47;;;;;;;5.43;3.30;;;;;;;19.51;48.48;100058.31;30730886;28;97362;-66
2022/06/23 22:10:50;;;;;;;6.73;3.67;;;;;;;19.35;49.77;100054.41;30729719;28;96742;-63
2022/06/23 22:26:11;;;;;;;7.63;3.70;;;;;;;19.43;50.23;100050.53;30728649;28;97299;-64
2022/06/23 22:41:14;;;;;;;7.70;4.40;;;;;;;18.96;50.89;100055.81;30735326;28;97406;-66
2022/06/23 22:56:38;;;;;;;6.63;4.30;;;;;;;18.30;52.47;100050.16;30746986;28;96692;-62
2022/06/23 23:11:40;;;;;;;5.67;4.60;;;;;;;17.87;53.79;100039.16;30746029;28;97290;-63
2022/06/23 23:26:48;;;;;;;7.37;4.33;;;;;;;17.61;54.95;100045.63;30744094;28;96690;-62
2022/06/23 23:41:50;;;;;;;7.10;4.57;;;;;;;17.32;56.01;100047.06;30743313;28;97039;-64
2022/06/23 23:56:50;;;;;;;6.73;4.13;;;;;;;17.06;56.70;100052.44;30742208;28;97442;-66
